createdAt,value
2023-03-29T04:15:09.924Z,74.10
2023-03-29T04:17:42.032Z,71.89
2023-03-29T04:20:24.490Z,70.04
2023-03-29T04:22:56.137Z,70.19
2023-03-29T04:25:25.019Z,70.56
2023-03-29T04:28:30.794Z,71.22
2023-03-29T04:31:13.772Z,71.68
2023-03-29T04:40:26.634Z,70.21
2023-03-29T04:43:08.242Z,70.78
2023-03-29T04:45:38.395Z,71.01
2023-03-29T04:48:13.922Z,71.63
2023-03-29T04:50:48.444Z,72.52
2023-03-29T04:53:18.048Z,72.87
2023-03-29T04:55:47.470Z,71.86
2023-03-29T04:58:25.250Z,70.98
2023-03-29T05:00:58.405Z,70.79
2023-03-29T05:03:45.384Z,71.35
2023-03-29T05:06:19.365Z,72.15
2023-03-29T05:08:48.747Z,72.60
2023-03-29T05:11:27.994Z,72.91
2023-03-29T05:14:00.911Z,72.69
2023-03-29T05:16:30.508Z,71.28
2023-03-29T05:18:59.669Z,71.45
2023-03-29T05:21:30.958Z,72.11
2023-03-29T05:24:01.247Z,72.54
2023-03-29T05:26:52.619Z,73.19
2023-03-29T05:29:23.720Z,73.53
2023-03-29T05:31:59.893Z,73.96
2023-03-29T05:34:30.201Z,73.38
2023-03-29T05:37:01.743Z,71.50
2023-03-29T05:39:35.725Z,72.23
2023-03-29T05:42:06.590Z,72.25
2023-03-29T05:44:46.958Z,73.00
2023-03-29T05:47:19.520Z,73.61
2023-03-29T05:49:47.962Z,74.57
2023-03-29T05:52:24.171Z,73.93
2023-03-29T05:54:53.052Z,72.36
2023-03-29T05:57:22.336Z,72.59
2023-03-29T05:59:51.044Z,72.87
2023-03-29T06:02:20.252Z,73.42
2023-03-29T06:04:52.664Z,73.30
2023-03-29T06:07:39.112Z,74.08
2023-03-29T06:10:26.334Z,74.27
2023-03-29T06:13:01.061Z,73.16
2023-03-29T06:15:32.141Z,71.87
2023-03-29T06:18:06.259Z,71.96
2023-03-29T06:20:38.382Z,72.12
2023-03-29T06:23:11.576Z,72.99
2023-03-29T06:25:40.698Z,73.72
2023-03-29T06:28:10.173Z,73.95
2023-03-29T06:30:39.582Z,73.93
2023-03-29T06:33:09.944Z,73.15
2023-03-29T06:35:49.747Z,72.43
2023-03-29T06:38:26.890Z,73.41
2023-03-29T06:41:28.898Z,73.24
2023-03-29T06:44:10.585Z,73.73
2023-03-29T06:46:50.265Z,74.82
2023-03-29T06:49:19.118Z,74.51
2023-03-29T06:52:00.295Z,72.94
2023-03-29T06:54:28.685Z,72.58
2023-03-29T06:57:08.114Z,72.84
2023-03-29T06:59:38.337Z,72.92
2023-03-29T07:02:20.650Z,73.72
2023-03-29T07:05:01.730Z,74.37
2023-03-29T07:07:53.645Z,73.96
2023-03-29T07:10:39.883Z,72.21
2023-03-29T07:13:30.747Z,72.00
2023-03-29T07:16:00.215Z,71.84
2023-03-29T07:18:55.376Z,72.23
2023-03-29T07:21:42.778Z,73.07
2023-03-29T07:24:13.310Z,72.47
2023-03-29T07:26:52.250Z,72.06
2023-03-29T07:29:29.619Z,73.72
2023-03-29T07:31:58.525Z,72.04
2023-03-29T07:34:49.523Z,69.62
2023-03-29T07:37:25.510Z,69.85
2023-03-29T07:39:54.165Z,70.23
2023-03-29T07:42:39.753Z,70.91
2023-03-29T07:45:10.588Z,71.63
2023-03-29T07:47:49.143Z,71.71
2023-03-29T07:50:18.430Z,71.46
2023-03-29T07:52:49.365Z,72.26
2023-03-29T07:55:17.915Z,70.96
2023-03-29T07:58:09.645Z,69.86
2023-03-29T08:00:38.722Z,68.89
2023-03-29T08:03:39.922Z,68.85
2023-03-29T08:06:08.980Z,68.13
2023-03-29T08:08:38.771Z,68.38
2023-03-29T08:11:12.797Z,68.86
2023-03-29T08:14:13.239Z,69.04
2023-03-29T08:16:58.049Z,69.71
2023-03-29T08:19:27.699Z,70.42
2023-03-29T08:22:05.808Z,69.38
2023-03-29T08:25:10.303Z,69.52
2023-03-29T08:27:43.544Z,70.12
2023-03-29T08:30:15.663Z,70.31
2023-03-29T08:32:49.968Z,69.02
2023-03-29T08:35:20.492Z,68.39
2023-03-29T08:38:12.774Z,68.88
2023-03-29T08:40:42.023Z,68.66
2023-03-29T08:43:24.688Z,70.47
2023-03-29T08:46:18.469Z,72.32
2023-03-29T08:48:51.155Z,73.46
2023-03-29T08:51:36.834Z,73.81
2023-03-29T08:54:08.284Z,72.43
2023-03-29T08:56:49.990Z,72.29
2023-03-29T08:59:28.441Z,70.56
2023-03-29T09:01:58.478Z,71.51
2023-03-29T09:04:35.721Z,71.23
2023-03-29T09:07:20.246Z,71.30
2023-03-29T09:09:48.924Z,71.43
2023-03-29T09:12:52.351Z,70.25
2023-03-29T09:15:28.764Z,71.82
2023-03-29T09:18:13.841Z,72.03
2023-03-29T09:21:11.632Z,69.92
2023-03-29T09:23:48.467Z,70.54
2023-03-29T09:26:31.644Z,70.73
2023-03-29T09:29:38.715Z,71.79
2023-03-29T09:32:23.416Z,71.42
2023-03-29T09:35:18.823Z,71.22
2023-03-29T09:37:48.766Z,72.37
2023-03-29T09:40:41.688Z,71.96
2023-03-29T09:43:18.556Z,69.55
2023-03-29T09:45:51.783Z,68.99
2023-03-29T09:48:20.094Z,68.35
2023-03-29T09:50:53.184Z,67.75
2023-03-29T09:53:22.079Z,67.40
2023-03-29T09:56:00.107Z,67.98
2023-03-29T09:58:46.692Z,68.69
2023-03-29T10:01:17.781Z,68.41
2023-03-29T10:03:52.548Z,68.98
2023-03-29T10:06:23.456Z,69.04
2023-03-29T10:08:57.972Z,69.04
2023-03-29T10:11:38.170Z,69.24
2023-03-29T10:14:33.829Z,69.43
2023-03-29T10:17:06.427Z,69.26
2023-03-29T10:19:35.835Z,69.42
2023-03-29T10:22:18.932Z,68.47
2023-03-29T10:24:52.418Z,67.61
2023-03-29T10:27:28.236Z,68.07
2023-03-29T10:30:00.648Z,73.41
2023-03-29T10:32:34.565Z,74.76
2023-03-29T10:35:11.073Z,71.47
2023-03-29T10:37:44.956Z,69.81
2023-03-29T10:40:27.738Z,69.19
2023-03-29T10:42:59.185Z,68.26
2023-03-29T10:45:32.090Z,68.09
2023-03-29T10:48:00.683Z,68.62
2023-03-29T10:50:38.453Z,69.16
2023-03-29T10:53:20.442Z,68.81
2023-03-29T10:55:55.170Z,69.69
2023-03-29T10:58:55.698Z,68.79
2023-03-29T11:01:30.284Z,65.41
2023-03-29T11:04:02.485Z,65.03
2023-03-29T11:07:27.508Z,66.10
2023-03-29T11:10:05.405Z,66.04
2023-03-29T11:12:58.665Z,65.50
2023-03-29T11:16:02.879Z,66.61
2023-03-29T11:19:10.478Z,66.80
2023-03-29T11:22:01.113Z,67.98
2023-03-29T11:25:10.822Z,67.76
2023-03-29T11:27:45.344Z,66.86
2023-03-29T11:30:57.407Z,66.58
2023-03-29T11:33:33.979Z,66.52
2023-03-29T11:36:12.997Z,65.61
2023-03-29T11:38:54.121Z,65.54
2023-03-29T11:41:27.219Z,64.97
2023-03-29T11:44:11.869Z,64.82
2023-03-29T11:46:48.392Z,64.73
2023-03-29T11:49:19.874Z,65.62
2023-03-29T11:51:57.902Z,65.81
2023-03-29T11:54:36.716Z,66.54
2023-03-29T11:57:29.941Z,68.07
2023-03-29T12:00:06.181Z,69.41
2023-03-29T12:02:46.945Z,70.03
2023-03-29T12:05:33.236Z,68.02
2023-03-29T12:08:16.683Z,66.63
2023-03-29T12:10:46.855Z,66.34
2023-03-29T12:13:15.441Z,65.73
2023-03-29T12:15:53.247Z,65.74
2023-03-29T12:18:33.809Z,66.25
2023-03-29T12:21:04.188Z,65.91
2023-03-29T12:23:35.276Z,65.64
2023-03-29T12:26:35.288Z,66.14
2023-03-29T12:29:26.718Z,66.95
2023-03-29T12:32:30.038Z,68.68
2023-03-29T12:35:31.295Z,69.82
2023-03-29T12:38:19.707Z,67.87
2023-03-29T12:41:22.080Z,66.97
2023-03-29T12:44:13.736Z,66.29
2023-03-29T12:46:55.395Z,65.22
2023-03-29T12:49:36.400Z,65.52
2023-03-29T12:52:16.296Z,66.03
2023-03-29T12:54:56.472Z,66.11
2023-03-29T12:57:41.657Z,66.47
2023-03-29T13:00:13.661Z,67.15
2023-03-29T13:02:46.105Z,67.61
2023-03-29T13:05:29.521Z,68.04
2023-03-29T13:07:58.400Z,67.43
2023-03-29T13:10:38.557Z,68.53
2023-03-29T13:13:24.221Z,69.31
2023-03-29T13:15:53.075Z,66.54
2023-03-29T13:19:04.322Z,65.31
2023-03-29T13:21:33.443Z,65.32
2023-03-29T13:24:31.590Z,64.62
2023-03-29T13:27:06.440Z,64.67
2023-03-29T13:29:53.735Z,65.31
2023-03-29T13:32:46.583Z,64.70
2023-03-29T13:35:21.524Z,64.33
2023-03-29T13:38:09.253Z,64.61
2023-03-29T13:40:42.244Z,65.30
2023-03-29T13:43:21.471Z,64.94
2023-03-29T13:45:59.348Z,63.65
2023-03-29T13:48:33.764Z,63.52
2023-03-29T13:51:08.356Z,63.83
2023-03-29T13:53:40.083Z,64.07
2023-03-29T13:56:12.256Z,63.36
2023-03-29T13:58:51.683Z,63.37
2023-03-29T14:01:33.160Z,64.51
2023-03-29T14:04:02.001Z,64.10
2023-03-29T14:06:32.987Z,63.69
2023-03-29T14:09:05.238Z,62.99
2023-03-29T14:11:35.288Z,63.28
2023-03-29T14:14:08.681Z,63.57
2023-03-29T14:16:39.109Z,63.48
2023-03-29T14:19:40.556Z,62.91
2023-03-29T14:22:11.287Z,63.38
2023-03-29T14:24:48.377Z,63.22
2023-03-29T14:27:17.053Z,61.42
2023-03-29T14:29:47.824Z,61.32
2023-03-29T14:32:18.216Z,61.59
2023-03-29T14:34:50.268Z,60.92
2023-03-29T14:37:24.018Z,61.39
2023-03-29T14:39:52.360Z,61.19
2023-03-29T14:42:24.731Z,62.02
2023-03-29T14:44:58.257Z,61.75
2023-03-29T14:47:28.702Z,62.21
2023-03-29T14:50:00.934Z,61.73
2023-03-29T14:52:32.075Z,60.94
2023-03-29T14:55:02.180Z,61.61
2023-03-29T14:57:35.884Z,60.69
2023-03-29T15:00:19.329Z,60.46
2023-03-29T15:02:51.218Z,61.12
2023-03-29T15:05:40.563Z,60.36
2023-03-29T15:08:34.017Z,61.02
2023-03-29T15:11:23.546Z,61.16
2023-03-29T15:13:54.546Z,59.72
2023-03-29T15:16:23.605Z,59.91
2023-03-29T15:18:52.824Z,60.51
2023-03-29T15:21:21.617Z,61.01
2023-03-29T15:23:57.305Z,60.19
2023-03-29T15:26:31.277Z,59.96
2023-03-29T15:29:15.131Z,59.69
2023-03-29T15:31:46.576Z,58.54
2023-03-29T15:34:33.889Z,59.32
2023-03-29T15:37:04.457Z,58.49
2023-03-29T15:39:35.291Z,58.46
2023-03-29T15:42:03.833Z,57.65
2023-03-29T15:44:33.655Z,59.09
2023-03-29T15:47:02.393Z,58.36
2023-03-29T15:49:30.913Z,58.70
2023-03-29T15:51:59.956Z,57.47
2023-03-29T15:54:32.501Z,57.94
2023-03-29T15:57:03.946Z,58.42
2023-03-29T15:59:34.074Z,59.45
2023-03-29T16:02:03.694Z,59.47
2023-03-29T16:04:32.655Z,59.70
2023-03-29T16:07:02.569Z,59.43
2023-03-29T16:09:31.656Z,59.51
2023-03-29T16:12:03.109Z,59.47
2023-03-29T16:14:34.028Z,59.79
2023-03-29T16:17:03.438Z,61.36
2023-03-29T16:19:32.444Z,61.59
2023-03-29T16:22:02.566Z,61.56
2023-03-29T16:24:32.369Z,61.80
2023-03-29T16:27:02.051Z,61.92
2023-03-29T16:29:31.130Z,61.97
2023-03-29T16:32:00.380Z,62.57
2023-03-29T16:34:30.294Z,63.24
2023-03-29T16:36:58.969Z,62.47
2023-03-29T16:39:29.601Z,63.24
2023-03-29T16:41:58.296Z,63.13
2023-03-29T16:44:28.301Z,63.21
2023-03-29T16:46:59.660Z,63.71
2023-03-29T16:49:28.793Z,63.65
2023-03-29T16:52:01.954Z,64.02
2023-03-29T16:54:32.976Z,64.13
2023-03-29T16:57:02.098Z,64.44
2023-03-29T16:59:31.700Z,64.89
2023-03-29T17:02:00.777Z,64.88
2023-03-29T17:04:29.536Z,64.57
2023-03-29T17:06:58.764Z,64.60
2023-03-29T17:09:29.877Z,64.75
2023-03-29T17:11:58.911Z,64.77
2023-03-29T17:14:27.805Z,64.79
2023-03-29T17:16:58.943Z,65.05
2023-03-29T17:19:28.035Z,65.21
2023-03-29T17:21:57.219Z,64.94
2023-03-29T17:24:29.999Z,64.89
2023-03-29T17:26:58.815Z,64.96
2023-03-29T17:29:27.575Z,64.87
2023-03-29T17:31:56.437Z,64.64
2023-03-29T17:34:27.423Z,64.93
2023-03-29T17:36:56.603Z,65.65
2023-03-29T17:39:27.546Z,66.18
2023-03-29T17:41:56.135Z,66.29
2023-03-29T17:44:27.269Z,66.80
2023-03-29T17:46:55.786Z,67.50
2023-03-29T17:49:24.750Z,65.75
2023-03-29T17:51:53.845Z,64.57
2023-03-29T17:54:22.623Z,64.46
2023-03-29T17:56:51.893Z,64.61
2023-03-29T17:59:21.633Z,64.61
2023-03-29T18:01:52.306Z,64.70
2023-03-29T18:04:21.463Z,64.67
2023-03-29T18:06:50.200Z,64.63
2023-03-29T18:09:26.683Z,64.74
2023-03-29T18:11:57.042Z,65.19
2023-03-29T18:14:26.353Z,65.50
2023-03-29T18:16:59.602Z,65.63
2023-03-29T18:19:29.761Z,65.62
2023-03-29T18:21:58.337Z,66.09
2023-03-29T18:24:27.738Z,66.05
2023-03-29T18:26:56.331Z,66.22
2023-03-29T18:29:25.829Z,66.37
2023-03-29T18:31:54.571Z,66.72
2023-03-29T18:34:23.718Z,67.08
2023-03-29T18:36:54.036Z,67.29
2023-03-29T18:39:23.027Z,67.28
2023-03-29T18:41:52.434Z,67.34
2023-03-29T18:44:22.278Z,67.61
2023-03-29T18:46:50.933Z,67.89
2023-03-29T18:49:19.723Z,68.03
2023-03-29T18:51:50.053Z,68.06
2023-03-29T18:54:18.736Z,68.22
2023-03-29T18:56:47.987Z,68.39
2023-03-29T18:59:19.070Z,68.47
2023-03-29T19:01:48.013Z,66.38
2023-03-29T19:04:16.647Z,65.33
2023-03-29T19:06:46.464Z,64.57
2023-03-29T19:09:15.139Z,64.70
2023-03-29T19:11:44.052Z,65.10
2023-03-29T19:14:15.892Z,65.38
2023-03-29T19:16:44.482Z,65.89
2023-03-29T19:19:13.379Z,66.25
2023-03-29T19:21:44.509Z,66.39
2023-03-29T19:24:13.704Z,66.96
2023-03-29T19:26:42.802Z,67.48
2023-03-29T19:29:11.894Z,67.76
2023-03-29T19:31:40.649Z,67.72
2023-03-29T19:34:12.548Z,67.63
2023-03-29T19:36:41.331Z,67.76
2023-03-29T19:39:10.117Z,69.00
2023-03-29T19:41:40.039Z,70.34
2023-03-29T19:44:10.558Z,70.26
2023-03-29T19:46:41.223Z,69.89
2023-03-29T19:49:13.968Z,69.53
2023-03-29T19:51:44.089Z,69.28
2023-03-29T19:54:13.696Z,69.51
2023-03-29T19:56:43.263Z,69.91
2023-03-29T19:59:15.140Z,67.83
2023-03-29T20:01:51.335Z,65.91
2023-03-29T20:04:21.183Z,64.90
2023-03-29T20:06:49.818Z,64.77
2023-03-29T20:09:18.909Z,65.09
2023-03-29T20:11:48.722Z,65.71
2023-03-29T20:14:17.719Z,66.28
2023-03-29T20:16:46.900Z,67.16
2023-03-29T20:19:18.166Z,67.84
2023-03-29T20:21:46.845Z,68.37
2023-03-29T20:24:17.076Z,69.27
2023-03-29T20:26:45.770Z,69.63
2023-03-29T20:29:17.935Z,70.17
2023-03-29T20:31:47.366Z,70.56
2023-03-29T20:34:18.366Z,70.88
2023-03-29T20:36:47.228Z,71.04
2023-03-29T20:39:19.085Z,71.76
2023-03-29T20:41:48.042Z,72.34
2023-03-29T20:44:19.808Z,72.74
2023-03-29T20:54:05.600Z,67.57
2023-03-29T20:56:40.076Z,67.72
2023-03-29T20:59:13.615Z,68.39
2023-03-29T21:01:42.692Z,68.95
2023-03-29T21:04:11.808Z,69.59
2023-03-29T21:06:41.726Z,70.51
2023-03-29T21:09:10.605Z,71.06
2023-03-29T21:11:41.757Z,71.67
2023-03-29T21:14:11.464Z,72.05
2023-03-29T21:16:44.040Z,72.22
2023-03-29T21:19:15.186Z,72.71
2023-03-29T21:21:45.069Z,73.03
2023-03-29T21:24:14.186Z,73.15
2023-03-29T21:26:43.903Z,73.39
2023-03-29T21:29:12.893Z,72.97
2023-03-29T21:31:42.129Z,70.00
2023-03-29T21:34:10.891Z,68.17
2023-03-29T21:36:40.988Z,67.80
2023-03-29T21:39:09.675Z,67.85
2023-03-29T21:41:38.366Z,68.24
2023-03-29T21:44:09.607Z,68.99
2023-03-29T21:46:39.701Z,69.46
2023-03-29T21:49:08.517Z,70.06
2023-03-29T21:51:37.721Z,70.76
2023-03-29T21:54:06.707Z,71.48
2023-03-29T21:56:35.808Z,71.96
2023-03-29T21:59:04.532Z,71.83
2023-03-29T22:01:33.330Z,72.65
2023-03-29T22:04:02.065Z,72.84
2023-03-29T22:06:31.261Z,73.35
2023-03-29T22:09:01.079Z,73.61
2023-03-29T22:11:29.870Z,73.56
2023-03-29T22:13:58.879Z,70.89
2023-03-29T22:16:28.527Z,68.89
2023-03-29T22:18:58.270Z,68.20
2023-03-29T22:21:31.673Z,68.64
2023-03-29T22:24:01.581Z,69.01
2023-03-29T22:26:31.580Z,69.73
2023-03-29T22:29:03.048Z,70.28
2023-03-29T22:31:32.696Z,71.09
2023-03-29T22:34:03.184Z,71.68
2023-03-29T22:36:32.178Z,72.15
2023-03-29T22:39:01.001Z,72.35
2023-03-29T22:41:29.852Z,72.77
2023-03-29T22:43:59.878Z,73.35
2023-03-29T22:46:30.778Z,73.71
2023-03-29T22:49:00.521Z,73.32
2023-03-29T22:51:31.970Z,70.86
2023-03-29T22:54:00.860Z,69.04
2023-03-29T22:56:29.644Z,68.91
2023-03-29T22:58:59.162Z,69.20
2023-03-29T23:01:27.793Z,69.70
2023-03-29T23:03:57.062Z,70.70
2023-03-29T23:06:25.823Z,71.11
2023-03-29T23:08:54.410Z,71.59
2023-03-29T23:11:28.930Z,72.21
2023-03-29T23:13:57.720Z,72.56
2023-03-29T23:16:26.944Z,73.01
2023-03-29T23:18:55.819Z,73.50
2023-03-29T23:21:25.632Z,73.81
2023-03-29T23:23:54.790Z,74.09
2023-03-29T23:26:23.600Z,72.55
2023-03-29T23:28:54.762Z,70.04
2023-03-29T23:31:24.599Z,69.00
2023-03-29T23:33:53.965Z,68.85
2023-03-29T23:36:23.271Z,69.46
2023-03-29T23:38:52.864Z,70.06
2023-03-29T23:41:21.345Z,70.83
2023-03-29T23:43:54.035Z,71.16
2023-03-29T23:46:22.831Z,71.98
2023-03-29T23:48:51.599Z,72.20
2023-03-29T23:51:23.682Z,72.57
2023-03-29T23:53:52.864Z,72.93
2023-03-29T23:56:29.325Z,73.54
2023-03-29T23:58:58.214Z,74.12
